createdAt,value
2018-10-21T00:01:11.656Z,75.70
2018-10-21T00:03:39.606Z,75.60
2018-10-21T00:06:07.539Z,75.90
2018-10-21T00:08:35.499Z,76.00
2018-10-21T00:11:03.463Z,76.20
2018-10-21T00:13:32.319Z,77.10
2018-10-21T00:16:00.284Z,76.60
2018-10-21T00:18:28.331Z,76.50
2018-10-21T00:20:56.367Z,76.80
2018-10-21T00:23:24.552Z,76.70
2018-10-21T00:25:52.480Z,76.40
2018-10-21T00:28:20.440Z,76.40
2018-10-21T00:30:48.387Z,76.40
2018-10-21T00:33:16.364Z,76.80
2018-10-21T00:35:44.267Z,76.80
2018-10-21T00:38:18.924Z,76.90
2018-10-21T00:40:46.887Z,77.20
2018-10-21T00:43:15.063Z,77.50
2018-10-21T00:45:43.015Z,78.40
2018-10-21T00:48:11.027Z,78.60
2018-10-21T00:50:39.001Z,78.90
2018-10-21T00:53:06.949Z,79.30
2018-10-21T00:55:34.890Z,79.50
2018-10-21T00:58:02.835Z,79.50
2018-10-21T01:00:30.771Z,79.50
2018-10-21T01:02:58.789Z,79.50
2018-10-21T01:05:26.687Z,79.80
2018-10-21T01:07:54.646Z,79.50
2018-10-21T01:10:22.597Z,79.00
2018-10-21T01:12:50.539Z,79.00
2018-10-21T01:15:22.046Z,78.80
2018-10-21T01:17:49.999Z,78.70
2018-10-21T01:20:17.950Z,78.40
2018-10-21T01:22:45.991Z,78.60
2018-10-21T01:25:13.922Z,78.80
2018-10-21T01:27:42.386Z,79.30
2018-10-21T01:30:11.191Z,79.70
2018-10-21T01:32:39.163Z,80.20
2018-10-21T01:35:07.630Z,79.70
2018-10-21T01:37:35.596Z,79.50
2018-10-21T01:40:36.363Z,79.80
2018-10-21T01:43:04.819Z,80.30
2018-10-21T01:45:33.011Z,80.10
2018-10-21T01:48:02.088Z,80.10
2018-10-21T01:50:30.898Z,79.60
2018-10-21T01:53:00.308Z,79.60
2018-10-21T01:55:28.275Z,79.40
2018-10-21T01:57:56.944Z,79.50
2018-10-21T02:00:25.440Z,79.70
2018-10-21T02:02:53.849Z,80.30
2018-10-21T02:05:22.160Z,80.20
2018-10-21T02:07:50.096Z,80.00
2018-10-21T02:10:18.049Z,80.00
2018-10-21T02:12:46.048Z,80.20
2018-10-21T02:15:14.381Z,80.80
2018-10-21T02:17:42.363Z,80.70
2018-10-21T02:20:11.560Z,80.60
2018-10-21T02:22:40.131Z,80.90
2018-10-21T02:25:08.106Z,80.70
2018-10-21T02:27:36.576Z,80.70
2018-10-21T02:30:06.344Z,80.90
2018-10-21T02:32:34.341Z,82.00
2018-10-21T02:35:02.276Z,81.70
2018-10-21T02:37:30.231Z,81.40
2018-10-21T02:40:05.835Z,81.30
2018-10-21T02:42:33.805Z,81.20
2018-10-21T02:45:01.818Z,81.00
2018-10-21T02:47:29.968Z,80.60
2018-10-21T02:49:57.895Z,80.80
2018-10-21T02:52:25.854Z,80.80
2018-10-21T02:54:53.818Z,80.80
2018-10-21T02:57:21.907Z,80.70
2018-10-21T02:59:49.731Z,80.70
2018-10-21T03:02:18.090Z,80.80
2018-10-21T03:04:46.032Z,80.20
2018-10-21T03:07:13.972Z,80.60
2018-10-21T03:09:41.932Z,81.00
2018-10-21T03:12:09.883Z,80.80
2018-10-21T03:14:37.880Z,80.70
2018-10-21T03:17:05.806Z,80.90
2018-10-21T03:19:33.788Z,81.20
2018-10-21T03:22:01.728Z,81.40
2018-10-21T03:24:29.655Z,81.40
2018-10-21T03:26:57.660Z,81.40
2018-10-21T03:29:25.563Z,81.50
2018-10-21T03:31:53.528Z,80.90
2018-10-21T03:34:21.555Z,81.30
2018-10-21T03:36:49.527Z,81.30
2018-10-21T03:39:17.462Z,81.20
2018-10-21T03:41:45.414Z,81.30
2018-10-21T03:44:13.361Z,81.40
2018-10-21T03:46:41.565Z,81.60
2018-10-21T03:49:09.487Z,81.70
2018-10-21T03:51:37.425Z,81.60
2018-10-21T03:54:05.413Z,82.50
2018-10-21T03:56:33.344Z,82.10
2018-10-21T03:59:01.272Z,81.80
2018-10-21T04:01:29.228Z,82.00
2018-10-21T04:03:57.223Z,81.70
2018-10-21T04:06:25.112Z,82.40
2018-10-21T04:08:53.103Z,83.10
2018-10-21T04:11:21.039Z,83.40
2018-10-21T04:13:48.998Z,82.80
2018-10-21T04:16:17.030Z,82.20
2018-10-21T04:18:44.899Z,82.70
2018-10-21T04:21:12.889Z,82.90
2018-10-21T04:23:40.836Z,82.70
2018-10-21T04:26:08.803Z,82.30
2018-10-21T04:28:36.739Z,82.90
2018-10-21T04:31:04.783Z,83.20
2018-10-21T04:33:39.464Z,83.20
2018-10-21T04:36:08.828Z,83.10
2018-10-21T04:38:50.815Z,83.00
2018-10-21T04:41:18.772Z,82.80
2018-10-21T04:43:46.743Z,83.10
2018-10-21T04:46:14.745Z,83.20
2018-10-21T04:48:46.507Z,83.20
2018-10-21T04:51:14.671Z,83.00
2018-10-21T04:53:42.617Z,82.70
2018-10-21T04:56:10.536Z,82.80
2018-10-21T04:58:38.531Z,82.90
2018-10-21T05:01:06.479Z,83.00
2018-10-21T05:03:34.486Z,83.40
2018-10-21T05:06:02.458Z,83.80
2018-10-21T05:08:31.431Z,84.10
2018-10-21T05:10:59.408Z,84.50
2018-10-21T05:13:27.363Z,84.20
2018-10-21T05:15:55.335Z,84.10
2018-10-21T05:18:23.327Z,84.50
2018-10-21T05:20:51.269Z,83.70
2018-10-21T05:23:19.912Z,83.20
2018-10-21T05:25:47.865Z,82.60
2018-10-21T05:28:16.111Z,82.30
2018-10-21T05:30:44.023Z,81.60
2018-10-21T05:33:18.812Z,81.80
2018-10-21T05:35:46.755Z,82.50
2018-10-21T05:38:14.748Z,82.80
2018-10-21T05:40:42.727Z,82.60
2018-10-21T05:43:10.696Z,82.30
2018-10-21T05:45:38.630Z,82.30
2018-10-21T05:48:06.583Z,82.50
2018-10-21T05:50:34.535Z,82.30
2018-10-21T05:53:02.799Z,82.60
2018-10-21T05:55:30.794Z,82.60
2018-10-21T05:57:58.839Z,82.40
2018-10-21T06:00:26.728Z,82.40
2018-10-21T06:02:54.702Z,82.30
2018-10-21T06:05:42.543Z,82.30
2018-10-21T06:08:10.563Z,82.40
2018-10-21T06:10:38.531Z,82.10
2018-10-21T06:13:06.567Z,82.30
2018-10-21T06:15:34.535Z,82.80
2018-10-21T06:18:03.617Z,83.50
2018-10-21T06:20:33.819Z,83.50
2018-10-21T06:23:01.808Z,83.30
2018-10-21T06:25:29.760Z,83.20
2018-10-21T06:27:57.697Z,83.20
2018-10-21T06:30:25.659Z,83.30
2018-10-21T06:32:53.603Z,83.80
2018-10-21T06:35:21.550Z,84.00
2018-10-21T06:37:49.532Z,84.10
2018-10-21T06:40:17.479Z,84.20
2018-10-21T06:42:45.428Z,84.80
2018-10-21T06:45:13.420Z,85.10
2018-10-21T06:47:41.359Z,85.30
2018-10-21T06:50:12.846Z,85.80
2018-10-21T06:52:40.879Z,85.50
2018-10-21T06:55:08.959Z,86.00
2018-10-21T06:57:36.924Z,85.90
2018-10-21T07:00:05.690Z,85.60
2018-10-21T07:02:33.675Z,85.60
2018-10-21T07:05:01.667Z,86.20
2018-10-21T07:07:29.639Z,86.60
2018-10-21T07:09:57.612Z,87.00
2018-10-21T07:12:25.561Z,85.90
2018-10-21T07:14:53.498Z,85.40
2018-10-21T07:17:21.454Z,85.00
2018-10-21T07:19:50.312Z,86.00
2018-10-21T07:22:18.341Z,86.30
2018-10-21T07:24:46.232Z,87.30
2018-10-21T07:27:14.199Z,88.70
2018-10-21T07:29:42.172Z,89.10
2018-10-21T07:32:10.124Z,90.20
2018-10-21T07:34:38.092Z,89.70
2018-10-21T07:37:06.028Z,89.00
2018-10-21T07:39:33.964Z,88.60
2018-10-21T07:42:01.943Z,88.30
2018-10-21T07:44:29.887Z,88.90
2018-10-21T07:46:57.817Z,89.20
2018-10-21T07:49:25.799Z,90.30
2018-10-21T07:51:53.794Z,90.50
2018-10-21T07:54:21.707Z,90.80
2018-10-21T07:56:49.752Z,90.40
2018-10-21T07:59:17.951Z,90.10
2018-10-21T08:01:45.891Z,90.10
2018-10-21T08:04:13.940Z,90.10
2018-10-21T08:06:53.326Z,90.30
2018-10-21T08:09:21.263Z,90.30
2018-10-21T08:11:49.198Z,90.00
2018-10-21T08:14:17.152Z,89.90
2018-10-21T08:16:45.099Z,89.00
2018-10-21T08:19:13.088Z,88.30
2018-10-21T08:21:41.048Z,89.40
2018-10-21T08:24:09.002Z,89.40
2018-10-21T08:26:36.945Z,88.50
2018-10-21T08:29:05.278Z,87.70
2018-10-21T08:31:33.256Z,87.70
2018-10-21T08:34:01.302Z,87.40
2018-10-21T08:36:29.207Z,87.80
2018-10-21T08:38:57.163Z,88.30
2018-10-21T08:41:25.104Z,88.40
2018-10-21T08:43:53.081Z,88.40
2018-10-21T08:46:21.220Z,88.40
2018-10-21T08:48:49.072Z,88.50
2018-10-21T08:51:17.023Z,88.20
2018-10-21T08:53:44.960Z,88.70
2018-10-21T08:56:12.902Z,89.20
2018-10-21T08:58:40.856Z,89.10
2018-10-21T09:01:08.884Z,89.20
2018-10-21T09:03:37.036Z,89.00
2018-10-21T09:06:05.024Z,88.60
2018-10-21T09:08:36.567Z,88.70
2018-10-21T09:11:08.935Z,89.80
2018-10-21T09:13:36.780Z,89.30
2018-10-21T09:16:04.829Z,89.40
2018-10-21T09:18:33.400Z,89.30
2018-10-21T09:21:01.660Z,89.10
2018-10-21T09:23:29.592Z,88.90
2018-10-21T09:25:57.555Z,88.60
2018-10-21T09:28:25.542Z,88.70
2018-10-21T09:30:53.582Z,88.30
2018-10-21T09:33:21.625Z,88.70
2018-10-21T09:35:49.523Z,88.40
2018-10-21T09:38:17.501Z,88.30
2018-10-21T09:40:45.453Z,88.60
2018-10-21T09:43:13.459Z,88.80
2018-10-21T09:45:41.363Z,88.60
2018-10-21T09:48:09.336Z,88.30
2018-10-21T09:50:37.279Z,88.00
2018-10-21T09:53:05.378Z,88.00
2018-10-21T09:55:33.331Z,87.60
2018-10-21T09:58:02.172Z,86.70
2018-10-21T10:00:35.611Z,86.20
2018-10-21T10:03:05.944Z,85.30
2018-10-21T10:05:33.907Z,84.20
2018-10-21T10:08:01.854Z,83.00
2018-10-21T10:10:29.831Z,82.50
2018-10-21T10:12:57.839Z,82.40
2018-10-21T10:15:25.831Z,81.90
2018-10-21T10:17:53.910Z,81.60
2018-10-21T10:20:21.875Z,81.40
2018-10-21T10:22:49.811Z,81.30
2018-10-21T10:25:21.352Z,80.90
2018-10-21T10:27:49.311Z,80.40
2018-10-21T10:30:17.294Z,80.30
2018-10-21T10:32:45.264Z,79.90
2018-10-21T10:35:14.151Z,79.60
2018-10-21T10:37:42.427Z,79.20
2018-10-21T10:40:13.445Z,79.30
2018-10-21T10:42:41.542Z,78.40
2018-10-21T10:45:09.506Z,78.10
2018-10-21T10:47:38.111Z,78.20
2018-10-21T10:50:07.512Z,78.50
2018-10-21T10:52:35.541Z,78.20
2018-10-21T10:55:03.610Z,78.20
2018-10-21T10:57:31.515Z,78.20
2018-10-21T10:59:59.614Z,78.10
2018-10-21T11:02:27.459Z,76.90
2018-10-21T11:04:55.451Z,76.80
2018-10-21T11:07:23.818Z,76.60
2018-10-21T11:09:51.751Z,74.50
2018-10-21T11:12:19.812Z,73.20
2018-10-21T11:14:47.779Z,73.00
2018-10-21T11:17:15.732Z,73.00
2018-10-21T11:19:43.680Z,73.40
2018-10-21T11:22:11.709Z,73.70
2018-10-21T11:24:46.439Z,74.30
2018-10-21T11:27:14.904Z,74.20
2018-10-21T11:29:42.868Z,73.70
2018-10-21T11:32:10.899Z,73.40
2018-10-21T11:34:39.144Z,73.20
2018-10-21T11:37:07.142Z,71.80
2018-10-21T11:39:35.092Z,69.90
2018-10-21T11:42:03.077Z,69.50
2018-10-21T11:44:30.995Z,70.10
2018-10-21T11:46:58.947Z,70.20
2018-10-21T11:49:26.915Z,70.50
2018-10-21T11:51:54.976Z,70.40
2018-10-21T11:54:23.931Z,70.40
2018-10-21T11:56:51.890Z,70.10
2018-10-21T11:59:19.835Z,69.30
2018-10-21T12:01:47.905Z,68.90
2018-10-21T12:04:16.163Z,69.40
2018-10-21T12:06:44.047Z,69.20
2018-10-21T12:09:13.092Z,68.90
2018-10-21T12:11:42.956Z,68.90
2018-10-21T12:14:11.261Z,68.90
2018-10-21T12:16:39.239Z,68.00
2018-10-21T12:19:07.255Z,67.90
2018-10-21T12:21:35.426Z,68.10
2018-10-21T12:24:03.406Z,68.40
2018-10-21T12:26:35.408Z,68.70
2018-10-21T12:29:04.152Z,69.00
2018-10-21T12:31:32.095Z,68.60
2018-10-21T12:34:00.051Z,68.60
2018-10-21T12:36:28.009Z,68.60
2018-10-21T12:38:55.976Z,68.50
2018-10-21T12:41:24.063Z,68.20
2018-10-21T12:43:52.019Z,68.20
2018-10-21T12:46:19.978Z,68.10
2018-10-21T12:48:47.924Z,68.10
2018-10-21T12:51:15.948Z,67.90
2018-10-21T12:53:43.921Z,68.10
2018-10-21T12:56:11.891Z,67.60
2018-10-21T12:58:40.271Z,67.70
2018-10-21T13:01:08.848Z,67.60
2018-10-21T13:03:36.992Z,67.10
2018-10-21T13:06:04.932Z,67.80
2018-10-21T13:08:32.883Z,66.20
2018-10-21T13:11:00.887Z,66.50
2018-10-21T13:13:28.928Z,66.70
2018-10-21T13:15:56.799Z,66.70
2018-10-21T13:18:25.036Z,66.30
2018-10-21T13:20:52.979Z,66.00
2018-10-21T13:23:20.927Z,66.10
2018-10-21T13:25:48.967Z,66.00
2018-10-21T13:28:16.982Z,66.50
2018-10-21T13:30:44.871Z,65.50
2018-10-21T13:33:12.903Z,65.90
2018-10-21T13:35:40.858Z,65.90
2018-10-21T13:38:08.832Z,66.10
2018-10-21T13:40:36.791Z,66.20
2018-10-21T13:43:05.330Z,65.90
2018-10-21T13:45:33.514Z,65.60
2018-10-21T13:48:01.458Z,65.60
2018-10-21T13:50:29.391Z,65.60
2018-10-21T13:52:57.399Z,65.80
2018-10-21T13:55:25.559Z,65.90
2018-10-21T13:57:53.553Z,65.50
2018-10-21T14:00:21.519Z,65.40
2018-10-21T14:02:49.477Z,64.90
2018-10-21T14:05:17.419Z,64.90
2018-10-21T14:07:45.374Z,64.70
2018-10-21T14:10:13.423Z,65.00
2018-10-21T14:12:41.320Z,65.30
2018-10-21T14:15:09.322Z,65.80
2018-10-21T14:17:37.266Z,66.60
2018-10-21T14:20:06.743Z,66.30
2018-10-21T14:22:35.696Z,66.50
2018-10-21T14:25:03.759Z,66.00
2018-10-21T14:27:31.664Z,65.80
2018-10-21T14:29:59.785Z,65.30
2018-10-21T14:32:27.687Z,64.80
2018-10-21T14:34:55.659Z,64.60
2018-10-21T14:37:23.606Z,64.40
2018-10-21T14:39:51.545Z,64.50
2018-10-21T14:42:19.514Z,64.50
2018-10-21T14:44:47.447Z,65.40
2018-10-21T14:47:15.408Z,64.50
2018-10-21T14:49:43.360Z,64.70
2018-10-21T14:52:11.318Z,65.00
2018-10-21T14:54:40.286Z,65.10
2018-10-21T14:57:08.308Z,64.90
2018-10-21T14:59:39.596Z,65.20
2018-10-21T15:02:07.589Z,64.80
2018-10-21T15:04:35.512Z,65.10
2018-10-21T15:07:03.795Z,65.20
2018-10-21T15:09:31.792Z,65.10
2018-10-21T15:11:59.688Z,65.20
2018-10-21T15:14:27.639Z,65.10
2018-10-21T15:16:55.618Z,65.20
2018-10-21T15:19:23.550Z,65.30
2018-10-21T15:21:58.300Z,65.50
2018-10-21T15:24:26.247Z,65.50
2018-10-21T15:26:54.202Z,65.50
2018-10-21T15:29:26.024Z,65.50
2018-10-21T15:31:54.021Z,65.80
2018-10-21T15:34:21.919Z,66.20
2018-10-21T15:36:49.892Z,66.30
2018-10-21T15:39:17.926Z,66.50
2018-10-21T15:41:45.880Z,66.60
2018-10-21T15:44:13.939Z,66.90
2018-10-21T15:46:41.795Z,67.20
2018-10-21T15:49:09.734Z,67.30
2018-10-21T15:51:37.738Z,67.50
2018-10-21T15:54:05.664Z,67.60
2018-10-21T15:56:33.624Z,67.70
2018-10-21T15:59:01.595Z,68.00
2018-10-21T16:01:29.522Z,68.10
2018-10-21T16:03:57.504Z,68.30
2018-10-21T16:06:25.434Z,68.40
2018-10-21T16:08:53.427Z,68.60
2018-10-21T16:11:21.540Z,68.70
2018-10-21T16:13:49.567Z,68.90
2018-10-21T16:16:17.554Z,69.80
2018-10-21T16:18:45.470Z,69.40
2018-10-21T16:21:13.399Z,69.80
2018-10-21T16:23:41.379Z,69.90
2018-10-21T16:26:09.383Z,70.00
2018-10-21T16:28:37.283Z,70.10
2018-10-21T16:31:05.492Z,70.10
2018-10-21T16:33:34.331Z,70.40
2018-10-21T16:36:02.315Z,70.50
2018-10-21T16:38:30.351Z,70.70
2018-10-21T16:40:58.248Z,70.70
2018-10-21T16:43:26.258Z,71.10
2018-10-21T16:45:54.227Z,70.90
2018-10-21T16:48:22.193Z,71.10
2018-10-21T16:50:50.162Z,71.30
2018-10-21T16:53:18.201Z,72.10
2018-10-21T16:55:46.102Z,71.50
2018-10-21T16:58:14.124Z,71.70
2018-10-21T17:00:42.329Z,71.80
2018-10-21T17:03:10.081Z,71.80
2018-10-21T17:05:38.119Z,71.80
2018-10-21T17:08:06.028Z,72.00
2018-10-21T17:10:34.326Z,72.10
2018-10-21T17:13:01.985Z,72.20
2018-10-21T17:15:29.953Z,72.30
2018-10-21T17:17:58.032Z,72.20
2018-10-21T17:20:26.035Z,72.30
2018-10-21T17:22:53.972Z,72.30
2018-10-21T17:25:21.971Z,72.40
2018-10-21T17:27:49.961Z,72.30
2018-10-21T17:30:18.820Z,72.50
2018-10-21T17:32:47.012Z,72.70
2018-10-21T17:35:14.947Z,73.00
2018-10-21T17:37:42.937Z,73.20
2018-10-21T17:40:11.965Z,73.30
2018-10-21T17:42:40.103Z,73.30
2018-10-21T17:45:09.988Z,73.30
2018-10-21T17:47:38.039Z,73.40
2018-10-21T17:50:07.035Z,73.30
2018-10-21T17:52:35.089Z,73.20
2018-10-21T17:55:03.161Z,73.30
2018-10-21T17:57:31.399Z,73.20
2018-10-21T17:59:59.419Z,73.20
2018-10-21T18:02:27.374Z,73.30
2018-10-21T18:04:55.316Z,73.60
2018-10-21T18:07:23.341Z,73.90
2018-10-21T18:09:51.340Z,74.00
2018-10-21T18:12:19.264Z,74.10
2018-10-21T18:14:47.706Z,74.30
2018-10-21T18:17:15.687Z,73.70
2018-10-21T18:19:43.746Z,74.40
2018-10-21T18:22:11.749Z,74.40
2018-10-21T18:24:39.695Z,74.60
2018-10-21T18:27:07.734Z,74.60
2018-10-21T18:29:35.697Z,74.40
2018-10-21T18:32:04.139Z,74.40
2018-10-21T18:34:32.106Z,74.40
2018-10-21T18:37:00.083Z,74.40
2018-10-21T18:39:28.587Z,74.40
2018-10-21T18:41:56.551Z,74.40
2018-10-21T18:44:24.559Z,74.70
2018-10-21T18:46:52.551Z,74.70
2018-10-21T18:49:20.531Z,74.60
2018-10-21T18:51:48.561Z,74.70
2018-10-21T18:54:16.586Z,74.70
2018-10-21T18:56:44.560Z,74.70
2018-10-21T18:59:12.551Z,74.70
2018-10-21T19:01:40.504Z,74.60
2018-10-21T19:04:08.503Z,74.70
2018-10-21T19:06:36.590Z,74.80
2018-10-21T19:09:08.652Z,74.70
2018-10-21T19:11:36.635Z,74.50
2018-10-21T19:14:04.976Z,74.90
2018-10-21T19:16:32.996Z,74.80
2018-10-21T19:19:01.001Z,74.90
2018-10-21T19:21:28.954Z,74.80
2018-10-21T19:23:56.956Z,74.40
2018-10-21T19:26:24.920Z,74.70
2018-10-21T19:28:52.915Z,74.70
2018-10-21T19:31:21.124Z,74.60
2018-10-21T19:33:49.284Z,74.50
2018-10-21T19:36:17.163Z,74.40
2018-10-21T19:38:45.464Z,74.80
2018-10-21T19:41:13.615Z,74.70
2018-10-21T19:43:41.595Z,74.60
2018-10-21T19:46:09.606Z,74.70
2018-10-21T19:48:38.270Z,75.00
2018-10-21T19:51:06.264Z,75.00
2018-10-21T19:53:34.238Z,74.80
2018-10-21T19:56:02.238Z,74.60
2018-10-21T19:58:30.242Z,74.50
2018-10-21T20:00:58.510Z,74.50
2018-10-21T20:03:26.544Z,74.70
2018-10-21T20:05:54.495Z,75.00
2018-10-21T20:08:22.484Z,75.20
2018-10-21T20:10:50.511Z,75.10
2018-10-21T20:13:18.545Z,75.10
2018-10-21T20:15:46.402Z,75.30
2018-10-21T20:18:14.806Z,75.40
2018-10-21T20:20:42.684Z,75.10
2018-10-21T20:23:10.688Z,75.10
2018-10-21T20:25:38.670Z,75.40
2018-10-21T20:28:06.659Z,75.40
2018-10-21T20:30:34.594Z,75.30
2018-10-21T20:33:02.594Z,75.30
2018-10-21T20:35:30.472Z,75.10
2018-10-21T20:37:58.452Z,75.10
2018-10-21T20:40:26.421Z,75.30
2018-10-21T20:42:54.824Z,75.50
2018-10-21T20:45:22.796Z,75.40
2018-10-21T20:47:50.814Z,75.60
2018-10-21T20:50:18.759Z,76.00
2018-10-21T20:52:46.724Z,75.80
2018-10-21T20:55:14.668Z,75.80
2018-10-21T20:57:42.903Z,76.30
2018-10-21T21:00:10.796Z,76.10
2018-10-21T21:02:38.747Z,76.10
2018-10-21T21:05:07.875Z,76.00
2018-10-21T21:07:36.642Z,75.60
2018-10-21T21:10:05.893Z,75.80
2018-10-21T21:12:34.443Z,75.80
2018-10-21T21:15:03.388Z,76.50
2018-10-21T21:17:36.038Z,76.10
2018-10-21T21:20:07.187Z,76.40
2018-10-21T21:22:35.167Z,76.20
2018-10-21T21:25:03.143Z,77.10
2018-10-21T21:27:31.099Z,76.40
2018-10-21T21:29:59.080Z,76.10
2018-10-21T21:32:27.423Z,76.30
2018-10-21T21:34:55.372Z,76.40
2018-10-21T21:37:23.429Z,76.20
2018-10-21T21:39:51.379Z,76.60
2018-10-21T21:42:19.526Z,76.40
2018-10-21T21:44:47.348Z,75.90
2018-10-21T21:47:15.319Z,76.00
2018-10-21T21:49:43.825Z,76.10
2018-10-21T21:52:11.960Z,76.00
2018-10-21T21:54:39.795Z,76.00
2018-10-21T21:57:07.756Z,76.20
2018-10-21T21:59:35.686Z,76.10
2018-10-21T22:02:03.751Z,75.60
2018-10-21T22:04:31.709Z,75.60
2018-10-21T22:06:59.675Z,75.80
2018-10-21T22:09:27.617Z,75.60
2018-10-21T22:11:55.623Z,75.30
2018-10-21T22:14:23.563Z,75.10
2018-10-21T22:16:51.517Z,75.30
2018-10-21T22:19:19.438Z,75.10
2018-10-21T22:21:50.375Z,74.90
2018-10-21T22:24:18.418Z,74.70
2018-10-21T22:26:46.663Z,74.60
2018-10-21T22:29:14.592Z,74.60
2018-10-21T22:31:42.575Z,74.30
2018-10-21T22:34:10.602Z,74.20
2018-10-21T22:36:38.487Z,74.00
2018-10-21T22:39:06.476Z,73.90
2018-10-21T22:41:34.528Z,73.80
2018-10-21T22:44:02.761Z,73.70
2018-10-21T22:46:30.754Z,73.70
2018-10-21T22:48:58.658Z,73.60
2018-10-21T22:51:26.603Z,73.60
2018-10-21T22:53:54.661Z,73.50
2018-10-21T22:56:22.824Z,73.40
2018-10-21T22:58:50.772Z,73.50
2018-10-21T23:01:18.741Z,73.30
2018-10-21T23:03:46.716Z,73.40
2018-10-21T23:06:15.029Z,73.40
2018-10-21T23:08:42.894Z,73.40
2018-10-21T23:11:10.855Z,73.30
2018-10-21T23:13:39.044Z,73.50
2018-10-21T23:16:07.589Z,73.10
2018-10-21T23:18:35.622Z,73.20
2018-10-21T23:21:03.594Z,73.20
2018-10-21T23:23:31.679Z,73.00
2018-10-21T23:25:59.632Z,73.00
2018-10-21T23:28:27.578Z,72.70
2018-10-21T23:30:55.532Z,72.90
2018-10-21T23:33:23.487Z,72.90
2018-10-21T23:35:51.485Z,72.80
2018-10-21T23:38:19.450Z,72.70
2018-10-21T23:40:47.435Z,72.70
2018-10-21T23:43:15.371Z,72.70
2018-10-21T23:45:43.339Z,72.70
2018-10-21T23:48:11.334Z,72.60
2018-10-21T23:50:39.319Z,72.30
2018-10-21T23:53:07.299Z,72.50
2018-10-21T23:55:35.239Z,72.40
2018-10-21T23:58:03.223Z,72.20
